Time;durP1;ratioP1;P1;durP2;ratioP2;P2;SDS_P1;SDS_P2;PMS_P1;PMS_P2;Temp;Humidity;BMP_temperature;BMP_pressure;BME280_temperature;BME280_humidity;BME280_pressure;Samples;Min_cycle;Max_cycle;Signal;HPM_P1;HPM_P2
2021/11/07 00:06:53;;;;;;;0.95;0.90;;;;;;;6.25;75.10;98101.94;5049922;28;20198;-70
2021/11/07 00:09:28;;;;;;;0.73;0.73;;;;;;;6.27;74.46;98091.97;5049939;28;20037;-69
2021/11/07 00:11:57;;;;;;;1.38;0.80;;;;;;;6.26;74.36;98100.88;5051202;28;20037;-70
2021/11/07 00:14:24;;;;;;;1.05;0.82;;;;;;;6.24;74.86;98100.34;5050947;28;20171;-70
2021/11/07 00:16:51;;;;;;;2.17;0.88;;;;;;;6.25;74.59;98101.13;5050835;28;20521;-71
2021/11/07 00:22:04;;;;;;;0.70;0.70;;;;;;;6.22;74.45;98117.41;5050463;28;20080;-72
2021/11/07 00:27:26;;;;;;;0.70;0.70;;;;;;;6.11;74.44;98119.88;5049465;28;20135;-71
2021/11/07 00:30:10;;;;;;;0.70;0.70;;;;;;;6.08;75.33;98103.78;5049492;28;20059;-72
2021/11/07 00:38:12;;;;;;;0.60;0.60;;;;;;;6.17;75.47;98127.84;5054151;28;20502;-70
2021/11/07 00:40:44;;;;;;;0.70;0.70;;;;;;;6.09;74.97;98123.78;5053232;28;20053;-71
2021/11/07 00:43:30;;;;;;;1.45;0.93;;;;;;;6.08;75.27;98135.34;5054208;28;20045;-71
2021/11/07 00:48:57;;;;;;;0.75;0.70;;;;;;;5.98;75.85;98135.97;5052976;28;20037;-70
2021/11/07 00:51:29;;;;;;;0.60;0.60;;;;;;;5.95;75.24;98146.97;5038809;28;20521;-71
2021/11/07 00:54:16;;;;;;;1.23;1.13;;;;;;;5.92;75.11;98153.47;5054397;28;20060;-70
2021/11/07 00:56:55;;;;;;;3.53;2.00;;;;;;;5.96;75.21;98161.72;5052824;28;20068;-70
2021/11/07 00:59:38;;;;;;;1.17;1.00;;;;;;;5.99;74.79;98165.72;5052710;28;20091;-70
2021/11/07 01:02:15;;;;;;;0.98;0.90;;;;;;;5.98;75.20;98162.28;5053771;28;20111;-70
2021/11/07 01:04:45;;;;;;;0.70;0.70;;;;;;;6.01;74.87;98172.31;5052432;28;20045;-70
2021/11/07 01:07:11;;;;;;;1.90;1.20;;;;;;;6.04;75.44;98173.69;5053959;28;20041;-70
2021/11/07 01:09:37;;;;;;;0.60;0.60;;;;;;;5.96;74.70;98181.97;5053947;28;20041;-70
2021/11/07 01:12:05;;;;;;;0.85;0.70;;;;;;;6.02;74.87;98205.47;5053918;28;20072;-70
2021/11/07 01:14:31;;;;;;;0.60;0.60;;;;;;;5.89;73.42;98192.59;5053792;28;20055;-70
2021/11/07 01:16:57;;;;;;;0.52;0.52;;;;;;;5.78;74.25;98196.09;5053892;28;20041;-71
2021/11/07 01:19:23;;;;;;;0.68;0.68;;;;;;;5.65;73.01;98210.31;5052406;28;20402;-70
2021/11/07 01:21:49;;;;;;;1.50;0.70;;;;;;;5.49;72.69;98205.78;5053379;28;20107;-70
2021/11/07 01:24:22;;;;;;;0.82;0.65;;;;;;;5.50;73.27;98218.69;5053795;28;20048;-69
2021/11/07 01:26:52;;;;;;;0.50;0.50;;;;;;;5.62;73.08;98218.66;5032713;28;20092;-69
2021/11/07 01:29:25;;;;;;;0.77;0.70;;;;;;;5.68;72.78;98221.16;5032370;28;20494;-70
2021/11/07 01:31:53;;;;;;;0.70;0.70;;;;;;;5.70;71.89;98231.41;5032608;28;20041;-70
2021/11/07 01:34:36;;;;;;;0.55;0.55;;;;;;;5.66;70.05;98231.09;5048815;28;20041;-70
2021/11/07 01:37:08;;;;;;;0.93;0.60;;;;;;;5.52;71.83;98221.09;5033408;28;20578;-70
2021/11/07 01:42:32;;;;;;;0.52;0.52;;;;;;;5.37;71.65;98232.88;5052786;28;20049;-69
2021/11/07 01:45:03;;;;;;;0.70;0.70;;;;;;;5.38;72.30;98239.75;5022605;28;20037;-71
2021/11/07 01:47:30;;;;;;;0.60;0.60;;;;;;;5.29;71.38;98243.75;5035312;28;20315;-70
2021/11/07 01:49:56;;;;;;;0.80;0.80;;;;;;;5.31;71.57;98254.84;5053247;28;20076;-70
2021/11/07 01:52:25;;;;;;;0.75;0.68;;;;;;;5.33;71.49;98258.03;5051887;28;20041;-70
2021/11/07 01:54:58;;;;;;;1.65;1.05;;;;;;;5.39;71.71;98253.69;5052959;28;20037;-70
2021/11/07 01:57:29;;;;;;;0.57;0.57;;;;;;;5.32;70.42;98266.13;5034980;28;20421;-69
2021/11/07 01:59:58;;;;;;;0.73;0.73;;;;;;;5.25;70.07;98274.16;5051022;28;20040;-70
2021/11/07 02:02:28;;;;;;;0.50;0.50;;;;;;;5.28;70.22;98271.06;5052815;28;20528;-70
2021/11/07 02:04:53;;;;;;;0.60;0.60;;;;;;;5.27;70.00;98282.59;5052921;28;20041;-70
2021/11/07 02:07:19;;;;;;;0.55;0.50;;;;;;;5.17;70.99;98282.38;5051271;28;20426;-70
2021/11/07 02:09:45;;;;;;;0.70;0.63;;;;;;;5.26;70.94;98290.72;5034837;28;20060;-71
2021/11/07 02:12:12;;;;;;;1.38;0.60;;;;;;;5.33;71.41;98297.44;5052630;28;20559;-71
2021/11/07 02:14:39;;;;;;;0.50;0.50;;;;;;;5.31;71.34;98296.09;5052737;28;20056;-68
2021/11/07 02:17:06;;;;;;;0.50;0.50;;;;;;;5.35;71.16;98287.50;5052528;28;20127;-69
2021/11/07 02:19:32;;;;;;;0.50;0.50;;;;;;;5.27;72.10;98293.13;5034509;28;20037;-71
2021/11/07 02:21:58;;;;;;;0.50;0.50;;;;;;;5.11;73.41;98307.72;5052437;28;20064;-70
2021/11/07 02:24:24;;;;;;;0.50;0.50;;;;;;;5.17;73.94;98309.44;5052413;28;20390;-71
2021/11/07 02:26:54;;;;;;;0.60;0.60;;;;;;;5.14;73.71;98309.91;5034597;28;20135;-70
2021/11/07 02:29:22;;;;;;;0.60;0.60;;;;;;;5.07;73.25;98324.97;5034743;28;20131;-70
2021/11/07 02:31:49;;;;;;;3.78;0.70;;;;;;;5.03;73.97;98318.59;5034721;28;20090;-69
2021/11/07 02:34:14;;;;;;;0.98;0.70;;;;;;;5.04;73.60;98328.06;5051134;28;20041;-70
2021/11/07 02:36:42;;;;;;;0.68;0.65;;;;;;;5.05;73.42;98329.66;5017791;28;20048;-70
2021/11/07 02:39:13;;;;;;;0.57;0.57;;;;;;;5.05;73.76;98334.09;5049800;28;20617;-70
2021/11/07 02:41:40;;;;;;;0.40;0.40;;;;;;;5.06;73.00;98340.94;5052041;28;20530;-70
2021/11/07 02:44:06;;;;;;;0.60;0.60;;;;;;;5.04;73.04;98350.91;5050922;28;20053;-69
2021/11/07 02:46:32;;;;;;;0.40;0.40;;;;;;;5.08;71.63;98347.59;5050710;28;20048;-70
2021/11/07 02:49:00;;;;;;;0.45;0.45;;;;;;;5.13;72.21;98355.59;5034350;28;20044;-70
2021/11/07 02:51:28;;;;;;;0.80;0.60;;;;;;;5.11;70.67;98351.59;5051490;28;20041;-69
2021/11/07 02:53:54;;;;;;;0.70;0.70;;;;;;;5.02;70.92;98351.13;5051186;28;20037;-66
2021/11/07 02:56:21;;;;;;;0.73;0.73;;;;;;;5.01;70.36;98371.34;5051445;28;20049;-68
2021/11/07 02:58:47;;;;;;;0.50;0.50;;;;;;;4.90;70.45;98371.31;5051527;28;20068;-69
2021/11/07 03:01:24;;;;;;;1.33;0.80;;;;;;;4.89;70.13;98378.41;5050157;28;20040;-68
2021/11/07 03:03:51;;;;;;;1.65;0.52;;;;;;;4.81;70.82;98388.41;5050787;28;20041;-68
2021/11/07 03:06:17;;;;;;;0.50;0.50;;;;;;;4.85;71.15;98405.31;5051246;28;20053;-68
2021/11/07 03:08:48;;;;;;;0.47;0.47;;;;;;;4.72;71.24;98375.59;5050028;28;20048;-66
2021/11/07 03:11:14;;;;;;;1.25;0.75;;;;;;;4.59;72.67;98391.56;5051616;28;20041;-68
2021/11/07 03:13:41;;;;;;;1.20;1.10;;;;;;;4.49;72.67;98404.38;5051809;28;20170;-68
2021/11/07 03:16:08;;;;;;;0.80;0.80;;;;;;;4.40;73.65;98403.91;5051401;28;20048;-68
2021/11/07 03:18:35;;;;;;;1.13;0.70;;;;;;;4.27;74.35;98407.50;5051722;28;20076;-69
2021/11/07 03:21:08;;;;;;;0.70;0.70;;;;;;;4.24;74.62;98415.00;5050110;28;20037;-68
2021/11/07 03:23:39;;;;;;;0.55;0.55;;;;;;;4.30;73.54;98412.28;5050454;28;20053;-67
2021/11/07 03:26:12;;;;;;;1.42;0.70;;;;;;;4.32;73.41;98418.13;5051256;28;20416;-72
2021/11/07 03:28:40;;;;;;;0.70;0.70;;;;;;;4.35;73.80;98418.69;5050035;28;20047;-74
2021/11/07 03:31:17;;;;;;;0.70;0.70;;;;;;;4.35;73.49;98421.31;5017036;28;20191;-73
2021/11/07 03:33:53;;;;;;;0.50;0.50;;;;;;;4.27;73.82;98436.34;5051461;28;20124;-74
2021/11/07 03:36:20;;;;;;;0.70;0.70;;;;;;;4.22;72.90;98438.03;5049917;28;20475;-68
2021/11/07 03:38:53;;;;;;;0.75;0.73;;;;;;;4.14;73.28;98435.69;5051526;28;20041;-67
2021/11/07 03:41:20;;;;;;;0.50;0.50;;;;;;;4.09;73.23;98444.22;5051178;28;20083;-68
2021/11/07 03:43:47;;;;;;;0.50;0.50;;;;;;;4.14;72.93;98461.91;5051306;28;20078;-68
2021/11/07 03:46:14;;;;;;;1.95;0.90;;;;;;;4.16;71.60;98460.69;5050763;28;20045;-69
2021/11/07 03:48:41;;;;;;;0.60;0.60;;;;;;;4.17;72.23;98457.03;5051069;28;20567;-69
2021/11/07 03:51:11;;;;;;;0.60;0.60;;;;;;;4.19;72.97;98472.56;5051030;28;20044;-69
2021/11/07 03:53:39;;;;;;;0.60;0.60;;;;;;;4.22;72.29;98470.28;5051210;28;20041;-68
2021/11/07 03:56:05;;;;;;;0.70;0.70;;;;;;;4.15;72.47;98482.69;5050972;28;20063;-69
2021/11/07 03:58:31;;;;;;;0.50;0.50;;;;;;;4.27;73.14;98472.28;5049731;28;20502;-68
2021/11/07 04:00:57;;;;;;;0.55;0.55;;;;;;;4.38;72.49;98487.25;5050605;28;20045;-68
2021/11/07 04:03:23;;;;;;;0.50;0.50;;;;;;;4.35;73.02;98484.28;5032851;28;20041;-69
2021/11/07 04:05:49;;;;;;;0.60;0.60;;;;;;;4.36;73.20;98489.31;5052526;28;20243;-69
2021/11/07 04:08:15;;;;;;;0.70;0.70;;;;;;;4.30;74.07;98498.88;5054812;28;20032;-68
2021/11/07 04:10:41;;;;;;;0.70;0.70;;;;;;;4.29;74.17;98502.53;5053386;28;20417;-67
2021/11/07 04:13:07;;;;;;;0.60;0.60;;;;;;;4.38;73.71;98504.84;5055082;28;20037;-69
2021/11/07 04:15:33;;;;;;;1.38;0.80;;;;;;;4.45;73.17;98516.88;5054834;28;20596;-70
2021/11/07 04:18:00;;;;;;;2.03;0.60;;;;;;;4.39;73.70;98516.97;5053779;28;20045;-69
2021/11/07 04:20:26;;;;;;;0.65;0.63;;;;;;;4.25;74.26;98521.53;5052887;28;20159;-69
2021/11/07 04:22:52;;;;;;;0.52;0.52;;;;;;;4.21;73.43;98526.41;5053297;28;20060;-68
2021/11/07 04:25:18;;;;;;;0.40;0.40;;;;;;;4.08;73.66;98521.28;5054612;28;20449;-68
2021/11/07 04:27:44;;;;;;;0.75;0.60;;;;;;;3.93;73.83;98497.22;5036968;28;20048;-68
2021/11/07 04:30:10;;;;;;;4.28;0.80;;;;;;;4.13;74.36;98533.75;5054725;28;20128;-70
2021/11/07 04:32:36;;;;;;;1.63;0.60;;;;;;;4.11;74.28;98536.59;5053281;28;20063;-68
2021/11/07 04:35:04;;;;;;;0.80;0.70;;;;;;;4.26;74.00;98546.72;5054680;28;20414;-69
2021/11/07 04:37:30;;;;;;;2.17;1.27;;;;;;;4.36;72.58;98541.00;5053111;28;20056;-69
2021/11/07 04:39:57;;;;;;;0.70;0.70;;;;;;;4.49;73.22;98546.91;5052872;28;20037;-69
2021/11/07 04:42:23;;;;;;;0.73;0.73;;;;;;;4.54;72.50;98541.81;5054290;28;20044;-70
2021/11/07 04:44:48;;;;;;;1.58;0.65;;;;;;;4.63;72.01;98550.19;5054313;28;20061;-67
2021/11/07 04:47:14;;;;;;;0.57;0.57;;;;;;;4.68;71.55;98555.59;5053862;28;20539;-69
2021/11/07 04:49:40;;;;;;;1.35;0.70;;;;;;;4.73;71.54;98563.59;5053686;28;20044;-70
2021/11/07 04:52:06;;;;;;;0.50;0.50;;;;;;;4.75;70.77;98569.44;5053032;28;20146;-69
2021/11/07 04:54:33;;;;;;;0.68;0.68;;;;;;;4.75;70.95;98569.44;5054170;28;20044;-69
2021/11/07 04:57:00;;;;;;;0.88;0.60;;;;;;;4.78;71.53;98574.25;5053889;28;20136;-67
2021/11/07 04:59:26;;;;;;;2.63;0.68;;;;;;;4.86;71.14;98588.91;5054010;28;20399;-68
2021/11/07 05:01:53;;;;;;;1.30;0.60;;;;;;;4.94;69.71;98588.63;5035977;28;20045;-68
2021/11/07 05:04:18;;;;;;;0.60;0.60;;;;;;;5.00;69.85;98593.00;5036118;28;20102;-70
2021/11/07 05:06:49;;;;;;;0.82;0.60;;;;;;;5.04;69.34;98598.59;5052627;28;20387;-71
2021/11/07 05:09:15;;;;;;;0.52;0.52;;;;;;;5.01;69.28;98594.59;5052646;28;20045;-69
2021/11/07 05:11:42;;;;;;;1.30;0.60;;;;;;;5.00;69.15;98603.50;5053131;28;20418;-68
2021/11/07 05:14:09;;;;;;;0.55;0.55;;;;;;;4.90;69.87;98603.19;5036206;28;20120;-69
2021/11/07 05:16:36;;;;;;;1.20;0.50;;;;;;;4.83;69.85;98606.94;5052579;28;20137;-70
2021/11/07 05:19:03;;;;;;;0.60;0.60;;;;;;;4.82;69.17;98608.75;5035811;28;20114;-69
2021/11/07 05:21:30;;;;;;;0.80;0.70;;;;;;;4.72;68.32;98619.75;5053046;28;20065;-69
2021/11/07 05:23:56;;;;;;;0.47;0.47;;;;;;;4.76;68.53;98610.44;5053937;28;20132;-68
2021/11/07 05:26:22;;;;;;;0.70;0.70;;;;;;;4.75;68.19;98615.91;5053042;28;20147;-69
2021/11/07 05:28:48;;;;;;;1.05;0.85;;;;;;;4.73;68.58;98612.69;5052460;28;20075;-69
2021/11/07 05:31:15;;;;;;;0.70;0.70;;;;;;;4.83;67.96;98627.94;5053168;28;20069;-71
2021/11/07 05:33:40;;;;;;;1.13;0.60;;;;;;;4.96;67.46;98625.16;5052186;28;20045;-72
2021/11/07 05:36:07;;;;;;;0.70;0.70;;;;;;;4.99;66.59;98622.88;5051642;28;20048;-71
2021/11/07 05:38:33;;;;;;;0.60;0.60;;;;;;;4.99;65.46;98622.88;5018781;28;20391;-70
2021/11/07 05:40:59;;;;;;;1.00;0.90;;;;;;;4.95;65.71;98636.69;5051611;28;20047;-70
2021/11/07 05:43:25;;;;;;;2.88;1.10;;;;;;;4.91;65.29;98625.84;5053282;28;20033;-67
2021/11/07 05:45:51;;;;;;;1.50;0.95;;;;;;;4.94;65.22;98645.56;5053003;28;20049;-72
2021/11/07 05:48:17;;;;;;;1.17;0.98;;;;;;;4.89;65.59;98635.75;5035498;28;20072;-69
2021/11/07 05:50:45;;;;;;;1.08;0.98;;;;;;;4.81;65.11;98638.66;5051583;28;20496;-72
2021/11/07 05:53:11;;;;;;;1.40;1.20;;;;;;;4.89;64.57;98648.06;5052830;28;20053;-70
2021/11/07 05:55:37;;;;;;;0.80;0.80;;;;;;;4.85;65.10;98639.00;5035093;28;20059;-76
2021/11/07 05:58:03;;;;;;;0.70;0.70;;;;;;;4.94;65.18;98651.66;5053059;28;20413;-66
2021/11/07 06:00:33;;;;;;;2.10;1.00;;;;;;;5.02;65.25;98655.81;5051148;28;20076;-70
2021/11/07 06:03:01;;;;;;;1.20;0.90;;;;;;;5.03;64.89;98648.72;5052613;28;20060;-72
2021/11/07 06:05:28;;;;;;;0.75;0.75;;;;;;;5.05;65.02;98655.34;5034846;28;20531;-70
2021/11/07 06:07:54;;;;;;;0.60;0.60;;;;;;;4.99;65.12;98650.97;5051682;28;20072;-68
2021/11/07 06:10:20;;;;;;;0.60;0.60;;;;;;;5.09;65.68;98664.44;5052844;28;20175;-69
2021/11/07 06:12:46;;;;;;;0.70;0.70;;;;;;;5.22;65.22;98669.50;5035096;28;20041;-71
2021/11/07 06:15:12;;;;;;;0.57;0.57;;;;;;;5.29;65.02;98672.06;5052835;28;20037;-69
2021/11/07 06:17:38;;;;;;;0.70;0.70;;;;;;;5.35;65.02;98665.13;5051295;28;20403;-70
2021/11/07 06:20:05;;;;;;;2.13;0.88;;;;;;;5.51;64.44;98671.63;5051035;28;20078;-73
2021/11/07 06:22:31;;;;;;;0.80;0.80;;;;;;;5.57;64.43;98670.72;5052094;28;20521;-69
2021/11/07 06:24:58;;;;;;;0.93;0.80;;;;;;;5.64;64.48;98676.69;5051126;28;20070;-70
2021/11/07 06:27:28;;;;;;;0.70;0.70;;;;;;;5.66;64.92;98667.56;5050992;28;20151;-70
2021/11/07 06:29:53;;;;;;;1.17;0.90;;;;;;;5.72;65.35;98662.44;5052350;28;20086;-71
2021/11/07 06:32:19;;;;;;;3.10;0.82;;;;;;;5.72;65.13;98667.69;5052364;28;20036;-70
2021/11/07 06:34:46;;;;;;;1.20;0.80;;;;;;;5.71;64.61;98674.78;5051833;28;20048;-70
2021/11/07 06:37:12;;;;;;;1.15;0.90;;;;;;;5.75;64.45;98672.50;5052314;28;20037;-70
2021/11/07 06:39:38;;;;;;;1.65;0.80;;;;;;;5.81;64.12;98674.25;5052161;28;20052;-69
2021/11/07 06:42:06;;;;;;;1.17;1.08;;;;;;;5.86;63.88;98682.28;5050440;28;20679;-76
2021/11/07 06:44:34;;;;;;;0.88;0.75;;;;;;;5.92;64.16;98679.53;5050602;28;20065;-79
2021/11/07 06:47:01;;;;;;;4.65;3.10;;;;;;;5.95;63.90;98694.09;5052189;28;20057;-74
2021/11/07 06:49:27;;;;;;;1.55;1.20;;;;;;;5.95;64.17;98693.31;5051820;28;20037;-74
2021/11/07 06:51:53;;;;;;;1.40;0.98;;;;;;;5.98;63.84;98692.88;5048000;28;20459;-76
2021/11/07 06:54:21;;;;;;;0.80;0.80;;;;;;;6.02;63.96;98696.63;5050987;28;20052;-74
2021/11/07 06:56:48;;;;;;;1.48;0.80;;;;;;;6.04;63.52;98703.28;5032022;28;20597;-77
2021/11/07 06:59:14;;;;;;;1.33;0.88;;;;;;;6.03;63.08;98683.28;4997627;28;20041;-71
2021/11/07 07:01:40;;;;;;;1.48;0.90;;;;;;;6.02;63.48;98681.66;5050284;28;20071;-70
2021/11/07 07:04:06;;;;;;;1.05;1.00;;;;;;;6.09;63.05;98695.53;5050253;28;20037;-66
2021/11/07 07:06:35;;;;;;;1.42;1.00;;;;;;;6.09;63.26;98706.06;5051190;28;20114;-72
2021/11/07 07:09:08;;;;;;;0.70;0.70;;;;;;;5.95;61.57;98709.88;5050166;28;20131;-72
2021/11/07 07:14:19;;;;;;;0.90;0.90;;;;;;;5.92;61.98;98710.31;5050137;28;20061;-68
2021/11/07 07:21:50;;;;;;;1.40;1.27;;;;;;;5.98;62.19;98713.91;5050394;28;20107;-72
2021/11/07 07:32:45;;;;;;;0.82;0.82;;;;;;;6.40;60.43;98721.78;5051233;28;20128;-65
2021/11/07 07:35:12;;;;;;;0.80;0.77;;;;;;;6.52;59.91;98731.31;5032840;28;20033;-71
2021/11/07 07:37:38;;;;;;;1.05;0.90;;;;;;;6.51;59.44;98723.66;5050545;28;20052;-67
2021/11/07 07:40:05;;;;;;;0.80;0.80;;;;;;;6.59;58.88;98725.94;5049407;28;20045;-72
2021/11/07 07:42:32;;;;;;;1.33;0.77;;;;;;;6.66;58.14;98718.72;5051196;28;20770;-70
2021/11/07 07:45:02;;;;;;;0.70;0.70;;;;;;;6.70;58.17;98726.97;5016651;28;20059;-73
2021/11/07 07:47:29;;;;;;;1.90;0.90;;;;;;;6.72;57.80;98719.66;5017527;28;20061;-68
2021/11/07 07:49:56;;;;;;;1.02;0.90;;;;;;;6.80;57.32;98725.38;4996669;28;20037;-72
2021/11/07 07:52:25;;;;;;;0.90;0.90;;;;;;;6.73;57.61;98718.63;5046053;28;20452;-73
2021/11/07 07:54:52;;;;;;;3.47;0.90;;;;;;;6.68;57.85;98723.78;5035138;28;20467;-72
2021/11/07 07:57:18;;;;;;;1.55;1.23;;;;;;;6.69;57.53;98728.00;5049606;28;20087;-69
2021/11/07 07:59:43;;;;;;;1.02;0.90;;;;;;;6.62;57.11;98732.56;5050805;28;20037;-70
2021/11/07 08:02:10;;;;;;;2.28;0.98;;;;;;;6.53;57.50;98732.94;5049555;28;20043;-71
2021/11/07 08:04:35;;;;;;;1.05;0.80;;;;;;;6.35;57.89;98727.72;5049351;28;20445;-72
2021/11/07 08:07:01;;;;;;;1.17;1.08;;;;;;;6.47;57.89;98733.00;5050129;28;20088;-74
2021/11/07 08:09:27;;;;;;;1.77;0.90;;;;;;;6.54;57.82;98739.00;5049073;28;20049;-69
2021/11/07 08:11:53;;;;;;;1.10;1.00;;;;;;;6.58;57.62;98738.28;5050256;28;20441;-70
2021/11/07 08:14:19;;;;;;;3.30;1.65;;;;;;;6.69;57.50;98744.63;5050672;28;20045;-70
2021/11/07 08:16:45;;;;;;;1.13;1.10;;;;;;;6.81;57.38;98739.34;5050440;28;20426;-76
2021/11/07 08:19:11;;;;;;;1.33;1.13;;;;;;;6.90;56.73;98739.81;5050671;28;20053;-62
2021/11/07 08:21:38;;;;;;;1.75;1.17;;;;;;;6.92;57.20;98746.47;5049618;28;20061;-73
2021/11/07 08:24:09;;;;;;;2.15;1.10;;;;;;;6.91;57.30;98744.03;5016314;28;20090;-71
2021/11/07 08:26:39;;;;;;;2.20;1.00;;;;;;;6.81;57.51;98736.72;4999656;28;20041;-66
2021/11/07 08:29:07;;;;;;;2.35;1.60;;;;;;;6.92;57.66;98735.94;5049295;28;20045;-65
2021/11/07 08:31:36;;;;;;;2.35;1.55;;;;;;;7.01;58.04;98742.44;5050064;28;20056;-59
2021/11/07 08:34:06;;;;;;;3.20;1.30;;;;;;;7.08;57.84;98738.91;5016458;28;20040;-66
2021/11/07 08:36:40;;;;;;;3.42;1.30;;;;;;;7.01;57.25;98736.38;5048532;28;20040;-66
2021/11/07 08:39:18;;;;;;;3.10;1.30;;;;;;;6.68;57.78;98698.25;5001217;28;20033;-68
2021/11/07 09:01:16;;;;;;;1.75;1.08;;;;;;;6.78;57.31;98727.44;5038348;28;20498;-68
2021/11/07 09:03:47;;;;;;;4.13;1.30;;;;;;;6.60;58.46;98725.72;5053504;28;20041;-66
2021/11/07 09:06:24;;;;;;;2.35;0.93;;;;;;;6.50;58.53;98733.38;5052990;28;20044;-68
2021/11/07 09:08:51;;;;;;;1.92;1.10;;;;;;;6.34;59.04;98729.56;5053745;28;20120;-68
2021/11/07 09:11:19;;;;;;;2.05;1.77;;;;;;;6.30;58.63;98727.63;5053207;28;20084;-68
2021/11/07 09:13:45;;;;;;;1.30;1.20;;;;;;;6.13;58.92;98730.88;5035901;28;20464;-67
2021/11/07 09:16:13;;;;;;;2.58;1.00;;;;;;;6.09;59.13;98727.09;5053099;28;20055;-67
2021/11/07 09:18:39;;;;;;;3.75;1.15;;;;;;;6.10;59.20;98727.91;5052119;28;20090;-68
2021/11/07 09:23:48;;;;;;;2.55;1.70;;;;;;;6.12;60.05;98726.66;5053186;28;20049;-69
2021/11/07 09:28:58;;;;;;;1.73;1.17;;;;;;;6.32;59.67;98718.47;5051993;28;20460;-66
2021/11/07 09:31:35;;;;;;;1.17;1.10;;;;;;;6.30;59.36;98717.88;5036519;28;20048;-68
2021/11/07 09:36:32;;;;;;;2.15;1.25;;;;;;;6.21;59.62;98713.19;5052569;28;20418;-67
2021/11/07 09:41:37;;;;;;;1.45;1.10;;;;;;;6.24;59.88;98696.94;5051434;28;20177;-68
2021/11/07 09:44:07;;;;;;;1.10;1.00;;;;;;;6.22;59.58;98704.25;5051654;28;20124;-68
2021/11/07 09:46:42;;;;;;;6.93;2.33;;;;;;;6.25;59.53;98701.16;5051493;28;20067;-68
2021/11/07 09:49:17;;;;;;;2.13;1.40;;;;;;;6.26;59.86;98693.03;5052961;28;20078;-67
2021/11/07 09:51:49;;;;;;;1.40;1.00;;;;;;;6.25;59.63;98696.69;5050507;28;20064;-68
2021/11/07 09:54:18;;;;;;;1.45;1.00;;;;;;;6.27;59.41;98702.53;5052833;28;20048;-67
2021/11/07 09:56:49;;;;;;;1.20;1.10;;;;;;;6.20;60.02;98695.75;5052793;28;20082;-69
2021/11/07 09:59:15;;;;;;;2.38;1.00;;;;;;;6.19;60.19;98700.22;5051229;28;20073;-69
2021/11/07 10:01:41;;;;;;;2.28;1.20;;;;;;;6.18;59.99;98703.06;5052360;28;20420;-69
2021/11/07 10:04:12;;;;;;;2.30;1.10;;;;;;;6.20;60.77;98707.09;5052251;28;20049;-68
2021/11/07 10:06:52;;;;;;;5.68;1.27;;;;;;;6.27;60.19;98713.06;5051528;28;20037;-68
2021/11/07 10:09:35;;;;;;;3.78;1.27;;;;;;;6.27;60.79;98712.28;5052565;28;20094;-70
2021/11/07 10:12:18;;;;;;;1.95;0.98;;;;;;;6.32;60.64;98702.69;5052362;28;20051;-68
2021/11/07 10:14:52;;;;;;;1.98;1.15;;;;;;;6.37;60.39;98712.50;5052397;28;20056;-67
2021/11/07 10:17:27;;;;;;;1.20;1.10;;;;;;;6.41;59.98;98705.75;5051223;28;20536;-66
2021/11/07 10:22:51;;;;;;;2.60;1.20;;;;;;;6.49;59.44;98712.53;5017510;28;20055;-74
2021/11/07 10:25:21;;;;;;;2.08;1.20;;;;;;;6.42;59.90;98702.13;5013921;28;20045;-74
2021/11/07 10:27:51;;;;;;;3.63;1.67;;;;;;;6.33;60.15;98706.09;5031959;28;20095;-76
2021/11/07 10:30:24;;;;;;;1.20;1.10;;;;;;;6.34;59.88;98707.69;5038055;28;20049;-77
2021/11/07 10:32:57;;;;;;;1.90;1.40;;;;;;;6.33;60.11;98692.94;5052078;28;20090;-78
2021/11/07 10:38:04;;;;;;;2.75;1.40;;;;;;;6.17;60.93;98694.38;5050548;28;20127;-66
2021/11/07 10:46:37;;;;;;;2.10;1.30;;;;;;;6.32;60.79;98709.75;5033046;28;20037;-73
2021/11/07 10:52:23;;;;;;;5.50;1.63;;;;;;;6.50;61.00;98701.78;5051166;28;20049;-69
2021/11/07 10:54:50;;;;;;;1.38;1.17;;;;;;;6.60;60.64;98702.00;5048510;28;20182;-73
2021/11/07 10:57:22;;;;;;;4.63;1.55;;;;;;;6.67;59.97;98699.25;5049800;28;20552;-73
2021/11/07 11:00:09;;;;;;;2.72;1.50;;;;;;;6.68;60.28;98692.97;5047345;28;20538;-74
2021/11/07 11:02:56;;;;;;;2.35;1.35;;;;;;;6.62;60.06;98685.16;5049864;28;20053;-73
2021/11/07 11:05:26;;;;;;;2.67;1.80;;;;;;;6.57;60.26;98691.94;5048261;28;20049;-69
2021/11/07 11:07:59;;;;;;;5.10;1.60;;;;;;;6.54;59.65;98681.84;5017051;28;20041;-69
2021/11/07 11:10:57;;;;;;;3.28;1.33;;;;;;;6.54;60.00;98691.59;5050910;28;20040;-71
2021/11/07 11:16:36;;;;;;;2.13;1.30;;;;;;;6.61;59.85;98687.00;5049410;28;20083;-70
2021/11/07 11:19:25;;;;;;;2.65;1.50;;;;;;;6.55;59.51;98682.66;5014473;28;20326;-80
2021/11/07 11:25:08;;;;;;;2.33;1.38;;;;;;;6.62;59.59;98680.72;5032940;28;20498;-76
2021/11/07 11:32:54;;;;;;;3.13;1.52;;;;;;;6.88;59.14;98668.09;5049837;28;20413;-79
2021/11/07 11:35:34;;;;;;;3.45;1.77;;;;;;;6.86;58.79;98676.25;5032577;28;20044;-76
2021/11/07 11:38:18;;;;;;;4.75;1.95;;;;;;;6.73;59.29;98671.19;5049707;28;20049;-83
2021/11/07 11:43:39;;;;;;;2.95;1.50;;;;;;;6.68;59.10;98661.38;5051020;28;20048;-72
2021/11/07 11:46:29;;;;;;;2.15;1.38;;;;;;;6.59;59.25;98658.28;5050843;28;20083;-75
2021/11/07 12:00:12;;;;;;;2.97;1.60;;;;;;;6.44;59.83;98647.41;5050827;28;20160;-73
2021/11/07 12:02:51;;;;;;;2.53;1.50;;;;;;;6.52;59.43;98646.25;5049854;28;20048;-67
2021/11/07 12:05:38;;;;;;;2.35;1.40;;;;;;;6.62;58.85;98643.88;5048770;28;20049;-66
2021/11/07 12:08:12;;;;;;;1.70;1.30;;;;;;;6.76;58.74;98647.84;5049298;28;20119;-73
2021/11/07 12:10:45;;;;;;;9.85;2.10;;;;;;;6.79;58.70;98641.31;5050579;28;20101;-68
2021/11/07 12:16:16;;;;;;;2.15;1.30;;;;;;;6.97;58.40;98635.91;5050479;28;20060;-66
2021/11/07 12:19:03;;;;;;;1.67;1.20;;;;;;;7.03;58.07;98642.09;5049007;28;20104;-69
2021/11/07 12:22:06;;;;;;;2.70;1.50;;;;;;;7.11;58.38;98633.81;5050286;28;20072;-72
2021/11/07 12:24:40;;;;;;;3.05;1.45;;;;;;;7.08;58.66;98631.63;5032934;28;20041;-77
2021/11/07 12:27:41;;;;;;;2.85;1.55;;;;;;;7.14;57.81;98624.63;5036439;28;20095;-71
2021/11/07 12:30:10;;;;;;;4.38;1.65;;;;;;;7.13;57.90;98609.88;5052712;28;20135;-76
2021/11/07 12:32:38;;;;;;;5.70;1.80;;;;;;;7.17;58.76;98603.88;5052549;28;20407;-75
2021/11/07 12:35:18;;;;;;;5.30;1.70;;;;;;;7.20;57.68;98613.97;5052633;28;20052;-74
2021/11/07 12:40:50;;;;;;;2.65;1.38;;;;;;;7.23;57.82;98607.41;5054161;28;20060;-70
2021/11/07 12:43:47;;;;;;;4.47;1.60;;;;;;;7.21;57.41;98597.13;5052595;28;20128;-72
2021/11/07 12:48:59;;;;;;;4.18;1.75;;;;;;;7.19;57.79;98601.03;5052354;28;20048;-71
2021/11/07 12:51:58;;;;;;;3.60;1.80;;;;;;;7.26;58.58;98612.22;5052688;28;20047;-72
2021/11/07 12:54:24;;;;;;;2.90;1.60;;;;;;;7.31;58.38;98601.78;5053894;28;20041;-72
2021/11/07 12:56:54;;;;;;;3.78;1.98;;;;;;;7.32;57.23;98600.75;5054358;28;20101;-76
2021/11/07 12:59:20;;;;;;;8.27;2.45;;;;;;;7.34;58.03;98601.31;5052393;28;20190;-73
2021/11/07 13:02:33;;;;;;;3.97;2.10;;;;;;;7.30;57.65;98596.75;5032569;28;20566;-72
2021/11/07 13:05:07;;;;;;;5.97;1.92;;;;;;;7.27;57.68;98590.91;5038498;28;20171;-73
2021/11/07 13:10:23;;;;;;;3.53;2.08;;;;;;;7.35;57.45;98600.25;5053516;28;20048;-73
2021/11/07 13:12:58;;;;;;;4.15;2.03;;;;;;;7.36;56.91;98593.19;5053926;28;20041;-72
2021/11/07 13:15:53;;;;;;;5.40;2.00;;;;;;;7.37;57.13;98598.19;4999245;28;20088;-67
2021/11/07 13:21:27;;;;;;;2.83;1.85;;;;;;;7.31;56.79;98587.81;5045592;28;20041;-72
2021/11/07 13:27:01;;;;;;;6.13;1.95;;;;;;;7.30;55.89;98587.00;5052608;28;20501;-72
2021/11/07 13:29:39;;;;;;;4.90;1.88;;;;;;;7.32;55.62;98584.13;5051376;28;20052;-73
2021/11/07 13:32:29;;;;;;;2.75;1.73;;;;;;;7.30;55.33;98576.47;5052814;28;20041;-77
2021/11/07 13:35:01;;;;;;;6.15;2.00;;;;;;;7.26;55.95;98577.94;5034357;28;20044;-75
2021/11/07 13:37:37;;;;;;;3.63;1.65;;;;;;;7.22;56.50;98575.00;5052496;28;20061;-75
2021/11/07 13:40:17;;;;;;;4.45;1.98;;;;;;;7.25;55.92;98577.16;5051955;28;20033;-81
2021/11/07 13:42:44;;;;;;;5.10;2.10;;;;;;;7.17;56.34;98564.34;5052073;28;20055;-77
2021/11/07 13:45:26;;;;;;;8.15;2.70;;;;;;;7.20;56.71;98571.00;5052608;28;20045;-75
2021/11/07 13:47:52;;;;;;;7.20;2.03;;;;;;;7.20;56.70;98569.16;5053679;28;20052;-73
2021/11/07 13:50:22;;;;;;;4.68;2.00;;;;;;;7.16;57.57;98562.75;5052558;28;20047;-69
2021/11/07 13:52:52;;;;;;;5.00;2.15;;;;;;;7.22;57.51;98558.38;5052604;28;20456;-67
2021/11/07 13:55:25;;;;;;;5.38;1.98;;;;;;;7.12;57.43;98561.63;5052613;28;20465;-66
2021/11/07 13:57:51;;;;;;;3.35;2.22;;;;;;;7.11;57.53;98560.00;5052372;28;20049;-68
2021/11/07 14:00:24;;;;;;;3.58;2.35;;;;;;;7.08;58.13;98546.50;5043776;28;20049;-66
2021/11/07 14:02:53;;;;;;;7.20;1.92;;;;;;;7.22;58.20;98563.66;5045965;28;20048;-71